createdAt,value
2018-05-31T00:01:32.213Z,73.00
2018-05-31T00:03:59.809Z,72.92
2018-05-31T00:06:27.461Z,72.92
2018-05-31T00:08:55.070Z,73.22
2018-05-31T00:11:22.709Z,73.94
2018-05-31T00:13:50.321Z,74.49
2018-05-31T00:16:18.169Z,74.82
2018-05-31T00:18:45.790Z,74.41
2018-05-31T00:21:13.433Z,74.06
2018-05-31T00:23:41.036Z,73.53
2018-05-31T00:26:08.681Z,73.45
2018-05-31T00:28:36.296Z,73.63
2018-05-31T00:31:03.963Z,73.36
2018-05-31T00:33:31.552Z,73.42
2018-05-31T00:35:59.213Z,73.49
2018-05-31T00:38:26.844Z,73.09
2018-05-31T00:40:54.544Z,72.91
2018-05-31T00:43:22.160Z,73.13
2018-05-31T00:45:49.897Z,73.69
2018-05-31T00:48:17.540Z,75.04
2018-05-31T00:50:45.139Z,75.95
2018-05-31T00:53:12.977Z,76.11
2018-05-31T00:55:52.452Z,76.51
2018-05-31T00:58:20.082Z,76.06
2018-05-31T01:00:47.689Z,75.73
2018-05-31T01:03:15.320Z,75.26
2018-05-31T01:05:42.936Z,74.90
2018-05-31T01:08:10.649Z,74.66
2018-05-31T01:10:38.355Z,74.59
2018-05-31T01:13:06.004Z,74.40
2018-05-31T01:15:33.608Z,74.34
2018-05-31T01:18:01.268Z,74.32
2018-05-31T01:20:29.101Z,74.54
2018-05-31T01:22:56.732Z,74.45
2018-05-31T01:25:24.363Z,74.41
2018-05-31T01:27:52.161Z,73.96
2018-05-31T01:30:19.769Z,73.56
2018-05-31T01:32:47.372Z,73.87
2018-05-31T01:35:15.165Z,74.20
2018-05-31T01:37:42.787Z,74.77
2018-05-31T01:40:10.518Z,74.79
2018-05-31T01:42:38.113Z,74.52
2018-05-31T01:45:05.894Z,74.49
2018-05-31T01:47:33.551Z,74.46
2018-05-31T01:50:01.341Z,74.63
2018-05-31T01:52:28.947Z,74.53
2018-05-31T01:54:56.582Z,74.26
2018-05-31T01:57:24.201Z,73.84
2018-05-31T01:59:52.089Z,73.83
2018-05-31T02:02:19.760Z,73.74
2018-05-31T02:04:47.433Z,74.88
2018-05-31T02:07:15.055Z,75.77
2018-05-31T02:09:42.680Z,76.12
2018-05-31T02:12:10.429Z,76.89
2018-05-31T02:14:38.053Z,76.32
2018-05-31T02:17:05.693Z,76.44
2018-05-31T02:19:33.727Z,76.71
2018-05-31T02:22:01.403Z,76.84
2018-05-31T02:24:29.001Z,76.85
2018-05-31T02:26:56.640Z,76.51
2018-05-31T02:29:24.249Z,76.21
2018-05-31T02:31:51.900Z,75.84
2018-05-31T02:34:19.536Z,75.37
2018-05-31T02:36:47.181Z,75.29
2018-05-31T02:39:14.805Z,75.10
2018-05-31T02:41:42.457Z,75.25
2018-05-31T02:44:10.141Z,75.71
2018-05-31T02:46:37.778Z,76.37
2018-05-31T02:49:05.428Z,77.03
2018-05-31T02:51:33.134Z,76.75
2018-05-31T02:54:00.800Z,76.82
2018-05-31T02:56:28.409Z,76.83
2018-05-31T02:58:56.058Z,76.67
2018-05-31T03:01:23.669Z,77.11
2018-05-31T03:03:51.308Z,77.10
2018-05-31T03:06:18.913Z,76.63
2018-05-31T03:08:46.559Z,76.34
2018-05-31T03:11:14.173Z,75.93
2018-05-31T03:13:41.809Z,75.94
2018-05-31T03:16:09.408Z,76.20
2018-05-31T03:18:37.049Z,76.87
2018-05-31T03:21:04.693Z,77.04
2018-05-31T03:23:32.389Z,76.88
2018-05-31T03:25:59.997Z,76.75
2018-05-31T03:28:27.600Z,76.55
2018-05-31T03:30:55.290Z,76.44
2018-05-31T03:33:22.945Z,76.23
2018-05-31T03:35:50.621Z,76.15
2018-05-31T03:38:18.231Z,76.14
2018-05-31T03:40:45.873Z,76.08
2018-05-31T03:43:13.546Z,76.45
2018-05-31T03:45:41.189Z,76.65
2018-05-31T03:48:08.781Z,77.83
2018-05-31T03:50:36.439Z,78.50
2018-05-31T03:53:04.092Z,78.39
2018-05-31T03:55:31.740Z,78.07
2018-05-31T03:57:59.365Z,78.15
2018-05-31T04:00:27.021Z,77.45
2018-05-31T04:02:54.620Z,76.81
2018-05-31T04:05:22.208Z,76.61
2018-05-31T04:07:49.968Z,76.49
2018-05-31T04:10:17.572Z,76.16
2018-05-31T04:12:45.200Z,76.16
2018-05-31T04:15:12.801Z,75.80
2018-05-31T04:17:40.441Z,76.05
2018-05-31T04:20:08.049Z,75.96
2018-05-31T04:22:35.677Z,76.04
2018-05-31T04:25:03.289Z,76.08
2018-05-31T04:27:30.932Z,76.13
2018-05-31T04:29:58.542Z,76.08
2018-05-31T04:32:26.202Z,75.77
2018-05-31T04:34:53.796Z,75.37
2018-05-31T04:37:21.436Z,75.00
2018-05-31T04:39:49.044Z,75.40
2018-05-31T04:42:16.725Z,76.19
2018-05-31T04:44:44.316Z,76.89
2018-05-31T04:47:11.977Z,76.78
2018-05-31T04:49:39.597Z,76.78
2018-05-31T04:52:07.203Z,76.89
2018-05-31T04:54:34.837Z,76.94
2018-05-31T04:57:02.458Z,76.83
2018-05-31T04:59:30.112Z,76.98
2018-05-31T05:01:57.721Z,76.80
2018-05-31T05:04:25.384Z,76.54
2018-05-31T05:06:53.053Z,76.62
2018-05-31T05:09:20.704Z,76.69
2018-05-31T05:11:48.344Z,76.33
2018-05-31T05:14:16.130Z,75.57
2018-05-31T05:16:43.744Z,75.35
2018-05-31T05:19:11.385Z,75.22
2018-05-31T05:21:38.979Z,74.71
2018-05-31T05:24:06.605Z,74.70
2018-05-31T05:26:34.239Z,74.21
2018-05-31T05:29:01.865Z,74.09
2018-05-31T05:31:29.472Z,73.89
2018-05-31T05:33:57.283Z,73.91
2018-05-31T05:36:24.892Z,73.59
2018-05-31T05:38:52.519Z,73.24
2018-05-31T05:41:20.184Z,73.19
2018-05-31T05:43:47.788Z,72.22
2018-05-31T05:46:15.441Z,71.96
2018-05-31T05:48:43.117Z,71.61
2018-05-31T05:51:10.827Z,70.34
2018-05-31T05:53:38.442Z,69.37
2018-05-31T05:56:06.059Z,69.81
2018-05-31T05:58:33.689Z,70.12
2018-05-31T06:01:01.322Z,70.35
2018-05-31T06:03:28.900Z,70.25
2018-05-31T06:05:56.606Z,69.50
2018-05-31T06:08:24.178Z,68.88
2018-05-31T06:10:51.832Z,67.91
2018-05-31T06:13:19.445Z,68.22
2018-05-31T06:15:47.056Z,68.30
2018-05-31T06:18:14.717Z,68.02
2018-05-31T06:20:42.324Z,68.25
2018-05-31T06:23:09.964Z,67.86
2018-05-31T06:25:37.576Z,67.99
2018-05-31T06:28:05.213Z,68.00
2018-05-31T06:30:32.810Z,67.74
2018-05-31T06:33:00.497Z,67.46
2018-05-31T06:35:28.104Z,66.96
2018-05-31T06:37:55.767Z,66.18
2018-05-31T06:40:23.377Z,66.10
2018-05-31T06:42:51.060Z,66.39
2018-05-31T06:45:18.705Z,66.08
2018-05-31T06:47:46.350Z,65.76
2018-05-31T06:50:13.969Z,66.03
2018-05-31T06:52:43.386Z,65.19
2018-05-31T06:55:11.022Z,64.47
2018-05-31T06:57:38.625Z,65.26
2018-05-31T07:00:06.329Z,65.56
2018-05-31T07:02:33.941Z,65.13
2018-05-31T07:05:01.581Z,64.90
2018-05-31T07:07:29.216Z,64.72
2018-05-31T07:09:56.841Z,64.64
2018-05-31T07:12:24.561Z,64.39
2018-05-31T07:14:52.189Z,63.59
2018-05-31T07:17:19.794Z,63.87
2018-05-31T07:19:47.433Z,64.87
2018-05-31T07:22:15.030Z,65.13
2018-05-31T07:24:42.691Z,63.87
2018-05-31T07:27:10.334Z,62.72
2018-05-31T07:29:37.917Z,62.19
2018-05-31T07:32:05.549Z,62.46
2018-05-31T07:34:33.160Z,61.49
2018-05-31T07:37:00.805Z,62.08
2018-05-31T07:39:28.460Z,61.37
2018-05-31T07:41:56.137Z,61.77
2018-05-31T07:44:23.802Z,62.11
2018-05-31T07:46:51.388Z,62.40
2018-05-31T07:49:18.988Z,62.14
2018-05-31T07:51:46.683Z,61.50
2018-05-31T07:54:14.306Z,61.94
2018-05-31T07:56:41.937Z,61.77
2018-05-31T07:59:09.518Z,61.86
2018-05-31T08:01:37.260Z,61.91
2018-05-31T08:04:04.889Z,60.90
2018-05-31T08:06:32.536Z,59.08
2018-05-31T08:09:00.216Z,57.60
2018-05-31T08:11:27.911Z,58.37
2018-05-31T08:13:55.548Z,57.56
2018-05-31T08:16:23.193Z,57.96
2018-05-31T08:18:50.829Z,57.58
2018-05-31T08:21:18.443Z,57.49
2018-05-31T08:23:46.248Z,57.69
2018-05-31T08:26:13.857Z,57.87
2018-05-31T08:28:41.656Z,58.11
2018-05-31T08:31:09.301Z,57.29
2018-05-31T08:33:36.941Z,57.29
2018-05-31T08:36:04.540Z,56.70
2018-05-31T08:38:32.181Z,56.57
2018-05-31T08:40:59.792Z,57.12
2018-05-31T08:43:27.513Z,57.61
2018-05-31T08:45:55.137Z,58.11
2018-05-31T08:48:22.841Z,57.99
2018-05-31T08:50:50.456Z,57.98
2018-05-31T08:53:18.050Z,58.21
2018-05-31T08:55:45.779Z,57.85
2018-05-31T08:58:13.412Z,58.10
2018-05-31T09:00:41.039Z,58.31
2018-05-31T09:03:08.744Z,57.83
2018-05-31T09:05:36.374Z,58.44
2018-05-31T09:08:04.048Z,59.00
2018-05-31T09:10:31.709Z,58.82
2018-05-31T09:12:59.294Z,58.76
2018-05-31T09:15:26.941Z,58.05
2018-05-31T09:17:54.545Z,58.08
2018-05-31T09:20:22.252Z,58.17
2018-05-31T09:22:50.041Z,58.39
2018-05-31T09:25:17.641Z,58.54
2018-05-31T09:27:45.281Z,58.63
2018-05-31T09:30:12.918Z,58.65
2018-05-31T09:32:40.553Z,58.40
2018-05-31T09:35:08.203Z,58.46
2018-05-31T09:37:35.803Z,59.69
2018-05-31T09:40:03.400Z,59.04
2018-05-31T09:42:31.040Z,59.50
2018-05-31T09:44:58.713Z,60.41
2018-05-31T09:47:26.364Z,59.74
2018-05-31T09:49:53.963Z,59.70
2018-05-31T09:52:21.614Z,59.73
2018-05-31T09:54:49.229Z,60.13
2018-05-31T09:57:16.926Z,59.55
2018-05-31T09:59:44.522Z,59.89
2018-05-31T10:02:12.165Z,59.73
2018-05-31T10:04:39.794Z,59.27
2018-05-31T10:07:07.445Z,59.96
2018-05-31T10:09:35.166Z,60.38
2018-05-31T10:12:02.785Z,60.02
2018-05-31T10:14:30.412Z,60.73
2018-05-31T10:16:58.023Z,58.82
2018-05-31T10:19:25.667Z,58.72
2018-05-31T10:21:53.268Z,58.83
2018-05-31T10:24:20.928Z,58.81
2018-05-31T10:26:48.556Z,56.77
2018-05-31T10:29:16.201Z,56.92
2018-05-31T10:31:43.835Z,55.64
2018-05-31T10:34:11.477Z,55.38
2018-05-31T10:36:39.081Z,55.39
2018-05-31T10:39:06.756Z,55.02
2018-05-31T10:41:34.375Z,55.42
2018-05-31T10:44:02.029Z,54.93
2018-05-31T10:46:29.679Z,53.91
2018-05-31T10:48:57.204Z,53.88
2018-05-31T10:51:24.886Z,54.16
2018-05-31T10:53:52.519Z,54.18
2018-05-31T10:56:20.145Z,54.53
2018-05-31T10:58:47.737Z,53.25
2018-05-31T11:01:15.389Z,52.95
2018-05-31T11:03:42.981Z,52.37
2018-05-31T11:06:10.616Z,51.76
2018-05-31T11:08:38.210Z,51.40
2018-05-31T11:11:06.518Z,51.25
2018-05-31T11:13:34.156Z,50.32
2018-05-31T11:16:01.817Z,52.30
2018-05-31T11:18:29.424Z,50.94
2018-05-31T11:20:57.111Z,51.61
2018-05-31T11:23:24.736Z,50.68
2018-05-31T11:25:52.458Z,51.09
2018-05-31T11:28:20.049Z,50.76
2018-05-31T11:30:47.707Z,51.96
2018-05-31T11:33:15.309Z,50.42
2018-05-31T11:35:42.908Z,49.60
2018-05-31T11:38:10.556Z,50.23
2018-05-31T11:40:38.172Z,50.32
2018-05-31T11:43:05.825Z,49.37
2018-05-31T11:45:33.417Z,49.71
2018-05-31T11:48:01.055Z,50.09
2018-05-31T11:50:28.662Z,49.31
2018-05-31T11:52:56.335Z,48.29
2018-05-31T11:55:23.959Z,48.25
2018-05-31T11:57:51.640Z,47.50
2018-05-31T12:00:19.251Z,47.54
2018-05-31T12:02:46.913Z,47.27
2018-05-31T12:05:14.554Z,46.74
2018-05-31T12:07:42.248Z,45.25
2018-05-31T12:10:09.914Z,45.44
2018-05-31T12:12:37.521Z,46.59
2018-05-31T12:15:05.180Z,47.38
2018-05-31T12:17:32.804Z,48.04
2018-05-31T12:20:00.417Z,48.47
2018-05-31T12:22:28.061Z,48.65
2018-05-31T12:24:55.758Z,48.51
2018-05-31T12:27:23.362Z,48.33
2018-05-31T12:29:51.065Z,48.66
2018-05-31T12:32:18.679Z,47.04
2018-05-31T12:34:46.304Z,47.16
2018-05-31T12:37:13.927Z,46.00
2018-05-31T12:39:41.573Z,45.13
2018-05-31T12:42:09.181Z,44.19
2018-05-31T12:44:36.898Z,44.79
2018-05-31T12:47:04.510Z,45.12
2018-05-31T12:49:32.169Z,44.14
2018-05-31T12:51:59.885Z,44.27
2018-05-31T12:54:27.504Z,43.94
2018-05-31T12:56:55.143Z,43.62
2018-05-31T12:59:22.756Z,43.00
2018-05-31T13:01:50.439Z,42.33
2018-05-31T13:04:18.020Z,42.96
2018-05-31T13:06:45.719Z,43.71
2018-05-31T13:09:13.358Z,44.60
2018-05-31T13:11:40.979Z,43.42
2018-05-31T13:14:08.597Z,42.19
2018-05-31T13:16:36.277Z,42.52
2018-05-31T13:19:03.884Z,41.26
2018-05-31T13:21:31.583Z,40.49
2018-05-31T13:23:59.215Z,41.43
2018-05-31T13:26:26.862Z,41.33
2018-05-31T13:28:54.545Z,41.38
2018-05-31T13:31:22.202Z,41.40
2018-05-31T13:33:49.997Z,40.66
2018-05-31T13:36:17.592Z,40.51
2018-05-31T13:38:45.238Z,41.31
2018-05-31T13:41:12.932Z,40.89
2018-05-31T13:43:40.588Z,40.91
2018-05-31T13:46:08.193Z,41.56
2018-05-31T13:48:35.871Z,41.00
2018-05-31T13:51:03.505Z,39.89
2018-05-31T13:53:31.138Z,40.92
2018-05-31T13:55:58.761Z,40.45
2018-05-31T13:58:26.381Z,40.14
2018-05-31T14:00:54.002Z,39.69
2018-05-31T14:03:21.646Z,39.54
2018-05-31T14:05:49.249Z,39.80
2018-05-31T14:08:16.928Z,39.75
2018-05-31T14:10:44.541Z,39.30
2018-05-31T14:13:12.243Z,38.92
2018-05-31T14:15:39.904Z,37.70
2018-05-31T14:18:07.601Z,37.67
2018-05-31T14:20:35.256Z,38.94
2018-05-31T14:23:02.870Z,39.86
2018-05-31T14:25:30.621Z,39.72
2018-05-31T14:27:58.224Z,38.86
2018-05-31T14:30:25.869Z,39.04
2018-05-31T14:32:53.561Z,38.35
2018-05-31T14:35:21.212Z,37.85
2018-05-31T14:37:48.869Z,38.63
2018-05-31T14:40:16.494Z,39.01
2018-05-31T14:42:44.109Z,40.36
2018-05-31T14:45:11.809Z,39.83
2018-05-31T14:47:39.420Z,38.83
2018-05-31T14:50:07.081Z,37.83
2018-05-31T14:52:34.687Z,38.36
2018-05-31T14:55:02.305Z,37.63
2018-05-31T14:57:29.960Z,37.17
2018-05-31T14:59:57.630Z,36.92
2018-05-31T15:02:25.265Z,37.88
2018-05-31T15:04:52.858Z,37.06
2018-05-31T15:07:20.482Z,37.03
2018-05-31T15:09:48.092Z,36.84
2018-05-31T15:12:15.712Z,36.45
2018-05-31T15:14:43.305Z,37.08
2018-05-31T15:17:11.078Z,36.91
2018-05-31T15:19:38.680Z,36.97
2018-05-31T15:22:06.355Z,37.21
2018-05-31T15:24:33.999Z,36.11
2018-05-31T15:27:01.643Z,36.29
2018-05-31T15:29:29.232Z,35.46
2018-05-31T15:31:57.114Z,35.29
2018-05-31T15:34:24.719Z,36.00
2018-05-31T15:36:52.328Z,35.88
2018-05-31T15:39:19.969Z,36.01
2018-05-31T15:41:47.572Z,35.12
2018-05-31T15:44:15.249Z,34.43
2018-05-31T15:46:42.883Z,34.65
2018-05-31T15:49:10.557Z,35.08
2018-05-31T15:51:38.169Z,34.26
2018-05-31T15:54:05.860Z,34.16
2018-05-31T15:56:33.473Z,34.48
2018-05-31T15:59:01.135Z,34.40
2018-05-31T16:01:28.777Z,34.83
2018-05-31T16:03:56.446Z,34.87
2018-05-31T16:06:24.047Z,33.63
2018-05-31T16:08:51.697Z,34.39
2018-05-31T16:11:19.300Z,34.92
2018-05-31T16:13:46.996Z,34.63
2018-05-31T16:16:14.608Z,34.71
2018-05-31T16:18:42.197Z,35.12
2018-05-31T16:21:09.834Z,36.21
2018-05-31T16:23:37.724Z,36.74
2018-05-31T16:26:05.360Z,37.53
2018-05-31T16:28:33.007Z,36.95
2018-05-31T16:31:00.640Z,36.71
2018-05-31T16:33:28.333Z,37.53
2018-05-31T16:35:56.028Z,36.75
2018-05-31T16:38:23.639Z,37.10
2018-05-31T16:40:51.337Z,37.28
2018-05-31T16:43:18.926Z,37.52
2018-05-31T16:45:46.594Z,37.69
2018-05-31T16:48:14.191Z,37.23
2018-05-31T16:50:41.856Z,38.14
2018-05-31T16:53:09.448Z,38.42
2018-05-31T16:55:37.116Z,38.50
2018-05-31T16:58:04.746Z,38.09
2018-05-31T17:00:32.351Z,39.62
2018-05-31T17:03:00.042Z,39.73
2018-05-31T17:05:27.695Z,39.13
2018-05-31T17:07:55.333Z,39.39
2018-05-31T17:10:23.061Z,38.65
2018-05-31T17:12:50.694Z,39.26
2018-05-31T17:15:18.297Z,40.04
2018-05-31T17:17:45.948Z,40.41
2018-05-31T17:20:13.569Z,40.36
2018-05-31T17:22:41.274Z,40.29
2018-05-31T17:25:08.908Z,40.26
2018-05-31T17:27:36.558Z,39.55
2018-05-31T17:30:04.153Z,38.38
2018-05-31T17:32:31.917Z,38.87
2018-05-31T17:34:59.531Z,39.22
2018-05-31T17:37:27.220Z,40.81
2018-05-31T17:39:54.849Z,40.68
2018-05-31T17:42:22.492Z,40.46
2018-05-31T17:44:50.119Z,41.20
2018-05-31T17:47:17.813Z,41.37
2018-05-31T17:49:45.449Z,41.20
2018-05-31T17:52:13.054Z,41.76
2018-05-31T17:54:40.769Z,42.34
2018-05-31T17:57:08.361Z,42.81
2018-05-31T17:59:36.024Z,43.29
2018-05-31T18:02:03.614Z,43.76
2018-05-31T18:04:31.310Z,44.76
2018-05-31T18:06:58.914Z,44.68
2018-05-31T18:09:26.589Z,44.80
2018-05-31T18:11:54.193Z,44.83
2018-05-31T18:14:21.885Z,45.70
2018-05-31T18:16:49.461Z,45.38
2018-05-31T18:19:17.113Z,45.35
2018-05-31T18:21:44.737Z,45.23
2018-05-31T18:24:12.517Z,45.56
2018-05-31T18:26:40.182Z,45.45
2018-05-31T18:29:07.833Z,45.77
2018-05-31T18:31:35.572Z,46.39
2018-05-31T18:34:03.177Z,46.76
2018-05-31T18:36:30.845Z,46.42
2018-05-31T18:38:58.521Z,45.47
2018-05-31T18:41:26.165Z,45.94
2018-05-31T18:43:53.760Z,46.02
2018-05-31T18:46:21.449Z,46.08
2018-05-31T18:48:49.107Z,46.75
2018-05-31T18:51:20.715Z,47.50
2018-05-31T18:53:48.372Z,47.92
2018-05-31T18:56:16.065Z,48.16
2018-05-31T18:58:43.708Z,48.70
2018-05-31T19:01:11.393Z,49.17
2018-05-31T19:03:39.021Z,49.51
2018-05-31T19:06:06.665Z,49.97
2018-05-31T19:08:34.298Z,50.62
2018-05-31T19:11:02.248Z,50.83
2018-05-31T19:13:35.429Z,51.22
2018-05-31T19:16:03.122Z,51.88
2018-05-31T19:18:36.329Z,52.29
2018-05-31T19:21:03.989Z,52.48
2018-05-31T19:23:31.641Z,52.96
2018-05-31T19:25:59.321Z,53.55
2018-05-31T19:28:26.970Z,53.87
2018-05-31T19:31:00.174Z,54.11
2018-05-31T19:33:27.845Z,54.46
2018-05-31T19:36:01.149Z,54.83
2018-05-31T19:38:28.765Z,55.14
2018-05-31T19:40:56.377Z,55.09
2018-05-31T19:43:29.510Z,55.12
2018-05-31T19:45:57.122Z,55.57
2018-05-31T19:48:24.752Z,55.35
2018-05-31T19:50:52.376Z,55.75
2018-05-31T19:53:25.504Z,55.99
2018-05-31T19:55:53.126Z,56.25
2018-05-31T19:58:28.036Z,56.50
2018-05-31T20:01:01.124Z,56.72
2018-05-31T20:03:37.038Z,57.27
2018-05-31T20:06:04.650Z,57.12
2018-05-31T20:08:32.331Z,57.10
2018-05-31T20:10:59.989Z,56.95
2018-05-31T20:13:27.677Z,56.96
2018-05-31T20:15:55.345Z,57.30
2018-05-31T20:18:23.001Z,57.03
2018-05-31T20:20:50.694Z,57.18
2018-05-31T20:23:18.325Z,57.21
2018-05-31T20:25:45.962Z,57.54
2018-05-31T20:28:13.683Z,58.34
2018-05-31T20:30:41.364Z,58.85
2018-05-31T20:33:09.045Z,59.51
2018-05-31T20:35:36.684Z,60.15
2018-05-31T20:38:04.313Z,60.76
2018-05-31T20:40:31.961Z,60.36
2018-05-31T20:42:59.588Z,60.27
2018-05-31T20:45:27.376Z,61.05
2018-05-31T20:47:55.034Z,61.37
2018-05-31T20:50:22.852Z,62.39
2018-05-31T20:52:50.477Z,62.63
2018-05-31T20:55:18.178Z,62.43
2018-05-31T20:57:45.804Z,62.13
2018-05-31T21:00:13.462Z,61.94
2018-05-31T21:02:41.149Z,61.46
2018-05-31T21:05:08.825Z,61.09
2018-05-31T21:07:36.441Z,60.59
2018-05-31T21:10:04.071Z,61.04
2018-05-31T21:12:31.704Z,61.07
2018-05-31T21:14:59.374Z,61.13
2018-05-31T21:17:26.980Z,61.00
2018-05-31T21:19:55.191Z,61.98
2018-05-31T21:22:22.813Z,61.88
2018-05-31T21:24:50.463Z,62.13
2018-05-31T21:27:18.139Z,61.99
2018-05-31T21:29:45.783Z,62.29
2018-05-31T21:32:13.426Z,63.79
2018-05-31T21:34:41.026Z,64.12
2018-05-31T21:37:08.807Z,64.24
2018-05-31T21:39:36.401Z,64.07
2018-05-31T21:42:04.084Z,63.87
2018-05-31T21:44:31.684Z,63.82
2018-05-31T21:46:59.312Z,63.65
2018-05-31T21:49:27.044Z,63.36
2018-05-31T21:51:54.993Z,63.97
2018-05-31T21:54:22.652Z,64.00
2018-05-31T21:56:50.345Z,63.95
2018-05-31T21:59:17.940Z,64.17
2018-05-31T22:01:45.608Z,63.90
2018-05-31T22:04:13.228Z,64.00
2018-05-31T22:06:40.949Z,64.10
2018-05-31T22:09:08.563Z,64.46
2018-05-31T22:11:36.245Z,64.74
2018-05-31T22:14:03.856Z,66.71
2018-05-31T22:16:31.484Z,67.61
2018-05-31T22:18:59.253Z,67.37
2018-05-31T22:21:26.863Z,66.92
2018-05-31T22:23:54.510Z,66.24
2018-05-31T22:26:22.129Z,66.16
2018-05-31T22:28:49.768Z,65.88
2018-05-31T22:31:17.377Z,65.70
2018-05-31T22:33:45.041Z,66.02
2018-05-31T22:36:12.657Z,66.14
2018-05-31T22:38:40.308Z,66.17
2018-05-31T22:41:07.913Z,65.88
2018-05-31T22:43:35.510Z,66.06
2018-05-31T22:46:03.203Z,67.08
2018-05-31T22:48:30.786Z,68.04
2018-05-31T22:50:58.436Z,68.69
2018-05-31T22:53:26.105Z,68.87
2018-05-31T22:55:53.837Z,70.18
2018-05-31T22:58:21.683Z,69.99
2018-05-31T23:00:49.355Z,69.44
2018-05-31T23:03:16.961Z,69.24
2018-05-31T23:05:44.596Z,69.23
2018-05-31T23:08:12.206Z,69.00
2018-05-31T23:10:39.899Z,68.95
2018-05-31T23:13:07.526Z,68.62
2018-05-31T23:15:35.485Z,68.46
2018-05-31T23:18:03.089Z,69.15
2018-05-31T23:20:30.784Z,69.51
2018-05-31T23:22:58.384Z,69.34
2018-05-31T23:25:26.026Z,69.37
2018-05-31T23:27:53.693Z,68.93
2018-05-31T23:30:21.301Z,68.86
2018-05-31T23:32:49.017Z,68.94
2018-05-31T23:35:16.636Z,69.24
2018-05-31T23:37:44.272Z,69.70
2018-05-31T23:40:12.700Z,70.60
2018-05-31T23:42:40.376Z,70.87
2018-05-31T23:45:07.990Z,70.34
2018-05-31T23:47:35.639Z,70.08
2018-05-31T23:50:03.238Z,70.31
2018-05-31T23:52:30.896Z,69.99
2018-05-31T23:54:58.590Z,69.79
2018-05-31T23:57:26.303Z,69.68
2018-05-31T23:59:53.921Z,70.05
